Deomdeisns607 — FGG4885 — position and weather

sailwx.info

Track history (hours):
 
Tides and Currents Weather Stations Pressure Air Temp Water Temp Dewpoint Dewpoint Depression Visibility Wind Speed Wind Dir Waves Ship Positions

Deomdeisns607

Last reported at 2018-Jun-13 17:28 UTC. Time now 2018-Jun-22 05:48 UTC.
Position N 48°22' W 004°47'.
Warning: this ship's position is 8 days out of date.

Type: SAR. MMSI: 227019140.

Date/timePositionNaut miles runAvg speedWind from/ knotsBaromVisibWave heightAir tempDewpointWater temp
2018-Jun-13 17:28N 48°22' W 004°47'4 8.1
2018-Jun-13 17:00N 48°20' W 004°42'612.6
2018-Jun-13 16:30N 48°21' W 004°33'3 5.3
2018-Jun-13 15:56N 48°23' W 004°29'3 6.4
2018-Jun-13 15:30N 48°21' W 004°32'1019.7
2018-Jun-13 15:00N 48°21' W 004°47'  
2018-Jun-10 10:20N 48°22' W 004°47'3 9.6
2018-Jun-10 10:00N 48°21' W 004°42'1 2.1
2018-Jun-10 09:30N 48°21' W 004°41'0 0.3
2018-Jun-10 09:00N 48°21' W 004°40'0 0.5
2018-Jun-10 08:28N 48°21' W 004°41'0 0.8
2018-Jun-10 07:59N 48°21' W 004°41'4 0.3
2018-Jun-09 17:38N 48°22' W 004°48'1 0.1
2018-Jun-09 09:20N 48°22' W 004°47'1 1.6
2018-Jun-09 08:57N 48°21' W 004°47'0 0.1
2018-Jun-09 08:06N 48°21' W 004°47'0 0.0
2018-Jun-09 07:40N 48°21' W 004°47'  
Track history (hours):
 
Tides and Currents Weather Stations Pressure Air Temp Water Temp Dewpoint Dewpoint Depression Visibility Wind Speed Wind Dir Waves Ship Positions

Deomdeisns607

Last reported at 2018-Jun-13 17:28 UTC. Time now 2018-Jun-22 05:48 UTC.
Position N 48°22' W 004°47'.
Warning: this ship's position is 8 days out of date.

Type: SAR. MMSI: 227019140.

Date/timePositionNaut miles runAvg speedWind from/ knotsBaromVisibWave heightAir tempDewpointWater temp
2018-Jun-13 17:28N 48°22' W 004°47'4 8.1
2018-Jun-13 17:00N 48°20' W 004°42'612.6
2018-Jun-13 16:30N 48°21' W 004°33'3 5.3
2018-Jun-13 15:56N 48°23' W 004°29'3 6.4
2018-Jun-13 15:30N 48°21' W 004°32'1019.7
2018-Jun-13 15:00N 48°21' W 004°47'  
2018-Jun-10 10:20N 48°22' W 004°47'3 9.6
2018-Jun-10 10:00N 48°21' W 004°42'1 2.1
2018-Jun-10 09:30N 48°21' W 004°41'0 0.3
2018-Jun-10 09:00N 48°21' W 004°40'0 0.5
2018-Jun-10 08:28N 48°21' W 004°41'0 0.8
2018-Jun-10 07:59N 48°21' W 004°41'4 0.3
2018-Jun-09 17:38N 48°22' W 004°48'1 0.1
2018-Jun-09 09:20N 48°22' W 004°47'1 1.6
2018-Jun-09 08:57N 48°21' W 004°47'0 0.1
2018-Jun-09 08:06N 48°21' W 004°47'0 0.0
2018-Jun-09 07:40N 48°21' W 004°47'  

Dump ship's entire track history